CheckWX is a tool to help pilots better visualize weather data.  It is not intended as a substitute for an official pre-flight weather briefing.

19:28:09 UTC

KMCW TAF
Mason City Municipal Airport
Mason City, Iowa, USA
KMCW 271723Z 2718/2818 02008KT 4SM BR OVC006 FM272000 35008KT P6SM OVC008 FM281000 32006KT 5SM BR OVC003

Jan-27@
18:00 UTC

Jan-27 @ 18:00 UTC

Jan-27@
20:00 UTC

Jan-27 @ 20:00 UTC

KMCW 271723Z 2718/2818 02008KT 4SM BR OVC006
Wind
  • 020° at 8 KTS
Conditions
Mist
Cloud Levels
  • Overcast at 600' AGL

Jan-27@
20:00 UTC

Jan-27 @ 20:00 UTC

Jan-28@
10:00 UTC

Jan-28 @ 10:00 UTC

FM272000 35008KT P6SM OVC008

From

From Standard forecast or significant change

Wind
  • 350° at 8 KTS
Cloud Levels
  • Overcast at 800' AGL

Jan-28@
10:00 UTC

Jan-28 @ 10:00 UTC

Jan-28@
18:00 UTC

Jan-28 @ 18:00 UTC

FM281000 32006KT 5SM BR OVC003

From

From Standard forecast or significant change

Wind
  • 320° at 6 KTS
Conditions
Mist
Cloud Levels
  • Overcast at 300' AGL